Time;durP1;ratioP1;P1;durP2;ratioP2;P2;SDS_P1;SDS_P2;PMS_P1;PMS_P2;Temp;Humidity;BMP_temperature;BMP_pressure;BME280_temperature;BME280_humidity;BME280_pressure;Samples;Min_cycle;Max_cycle;Signal;HPM_P1;HPM_P2
2023/06/12 00:07:06;;;;;;;7.63;4.55;;;;;;;21.01;100.00;100312.25;20998449;28;20040;-74
2023/06/12 00:17:33;;;;;;;7.20;4.20;;;;;;;20.95;100.00;100307.09;21017138;28;20056;-74
2023/06/12 00:27:56;;;;;;;8.98;4.75;;;;;;;20.83;100.00;100315.56;20983048;28;20052;-74
2023/06/12 00:38:21;;;;;;;7.63;4.45;;;;;;;20.77;100.00;100321.13;21044731;28;20495;-75
2023/06/12 00:48:43;;;;;;;9.60;4.95;;;;;;;20.73;100.00;100316.81;20971186;28;20424;-74
2023/06/12 00:59:07;;;;;;;12.60;5.35;;;;;;;20.65;100.00;100314.38;21030482;28;20069;-74
2023/06/12 01:09:37;;;;;;;8.60;4.97;;;;;;;20.58;100.00;100311.00;20981218;28;20072;-74
2023/06/12 01:20:11;;;;;;;7.47;4.30;;;;;;;20.24;100.00;100304.94;20970907;28;20048;-74
2023/06/12 01:30:54;;;;;;;8.32;4.78;;;;;;;20.41;100.00;100296.41;20984468;28;20048;-74
2023/06/12 01:40:59;;;;;;;7.38;4.90;;;;;;;20.19;100.00;100298.84;21013964;28;20053;-74
2023/06/12 01:51:22;;;;;;;6.82;4.50;;;;;;;20.11;100.00;100296.41;20961804;28;20055;-73
2023/06/12 02:01:46;;;;;;;10.77;5.85;;;;;;;20.17;100.00;100295.31;20995431;28;20048;-74
2023/06/12 02:12:11;;;;;;;6.78;4.18;;;;;;;20.10;100.00;100293.75;20980362;28;20040;-74
2023/06/12 02:22:35;;;;;;;7.82;4.45;;;;;;;19.79;100.00;100291.13;20990190;28;20051;-74
2023/06/12 02:32:58;;;;;;;7.65;4.88;;;;;;;19.87;100.00;100307.88;20965399;28;20036;-74
2023/06/12 02:43:23;;;;;;;10.10;4.97;;;;;;;19.81;100.00;100308.06;20968695;28;20122;-74
2023/06/12 02:53:46;;;;;;;7.60;4.97;;;;;;;19.77;100.00;100317.97;20978154;28;20053;-74
2023/06/12 03:04:10;;;;;;;10.55;5.50;;;;;;;19.71;100.00;100328.84;20970059;28;20084;-73
2023/06/12 03:14:33;;;;;;;9.18;4.78;;;;;;;19.76;100.00;100342.97;20969490;28;20342;-74
2023/06/12 03:24:58;;;;;;;5.43;4.05;;;;;;;19.87;100.00;100345.38;21011014;28;20061;-74
2023/06/12 03:35:23;;;;;;;9.27;4.55;;;;;;;20.20;100.00;100339.00;20984264;28;20053;-74
2023/06/12 03:45:48;;;;;;;6.70;4.93;;;;;;;20.55;100.00;100348.66;20964523;28;20590;-74
2023/06/12 03:56:11;;;;;;;7.70;4.55;;;;;;;20.95;100.00;100344.66;20962437;28;20136;-75
2023/06/12 04:06:40;;;;;;;5.15;3.80;;;;;;;21.42;100.00;100357.34;20954552;28;20036;-74
2023/06/12 04:17:03;;;;;;;8.35;3.85;;;;;;;21.97;100.00;100360.75;20968109;28;20056;-74
2023/06/12 04:27:29;;;;;;;5.53;3.78;;;;;;;22.52;100.00;100359.47;20981721;28;20052;-74
2023/06/12 04:37:52;;;;;;;6.20;3.42;;;;;;;23.15;100.00;100359.63;20953769;28;20048;-74
2023/06/12 04:48:17;;;;;;;4.10;2.88;;;;;;;23.84;100.00;100371.84;20965161;28;20577;-75
2023/06/12 04:58:41;;;;;;;5.53;2.88;;;;;;;24.57;100.00;100368.44;20986589;28;20079;-74
2023/06/12 05:09:07;;;;;;;6.93;3.25;;;;;;;25.34;100.00;100369.97;20957361;28;20808;-75
2023/06/12 05:19:30;;;;;;;8.32;3.20;;;;;;;25.95;100.00;100368.59;20967743;28;20118;-75
2023/06/12 05:29:55;;;;;;;8.82;3.40;;;;;;;26.65;100.00;100370.13;21013814;28;20637;-74
2023/06/12 05:40:19;;;;;;;7.95;3.03;;;;;;;27.29;100.00;100368.16;21020716;28;20062;-74
2023/06/12 05:50:43;;;;;;;8.23;2.67;;;;;;;27.77;100.00;100385.13;20959336;28;20055;-75
2023/06/12 06:01:09;;;;;;;6.03;2.95;;;;;;;28.44;100.00;100379.09;20982485;28;20056;-75
2023/06/12 06:11:49;;;;;;;5.07;2.60;;;;;;;29.03;100.00;100376.16;20974987;28;20044;-75
2023/06/12 06:22:14;;;;;;;6.47;3.20;;;;;;;29.76;92.33;100384.75;20967128;28;20066;-73
2023/06/12 06:32:39;;;;;;;5.85;2.78;;;;;;;30.33;85.31;100387.91;20997218;28;20135;-74
2023/06/12 06:43:02;;;;;;;8.85;3.15;;;;;;;30.75;75.63;100392.13;21031599;28;20072;-75
2023/06/12 06:53:39;;;;;;;4.32;2.70;;;;;;;31.21;71.60;100393.19;20929990;28;20051;-75
2023/06/12 07:04:03;;;;;;;6.30;2.63;;;;;;;31.10;71.17;100400.44;21008921;28;20055;-75
2023/06/12 07:14:28;;;;;;;8.05;2.78;;;;;;;31.47;70.50;100390.31;21024026;28;20130;-75
2023/06/12 07:24:52;;;;;;;6.65;2.55;;;;;;;31.69;73.18;100398.59;21044225;28;20135;-75
2023/06/12 07:35:18;;;;;;;5.77;2.77;;;;;;;31.84;70.73;100400.13;21047423;28;20044;-75
2023/06/12 07:45:41;;;;;;;5.60;2.72;;;;;;;31.77;73.22;100408.94;21021521;28;20121;-76
2023/06/12 07:56:06;;;;;;;8.65;3.47;;;;;;;31.79;75.56;100413.28;21027026;28;20052;-75
2023/06/12 08:06:32;;;;;;;4.60;2.90;;;;;;;32.00;78.69;100405.25;20971183;28;20063;-76
2023/06/12 08:16:58;;;;;;;6.13;2.83;;;;;;;31.97;76.39;100405.47;20975947;28;20059;-75
2023/06/12 08:27:21;;;;;;;7.20;2.90;;;;;;;32.17;76.14;100401.19;20955746;28;20164;-75
2023/06/12 08:37:45;;;;;;;7.43;3.03;;;;;;;32.18;77.21;100408.41;20993292;28;20051;-75
2023/06/12 08:48:09;;;;;;;6.50;2.65;;;;;;;32.44;73.07;100394.38;20969135;28;20040;-75
2023/06/12 08:58:33;;;;;;;6.25;2.60;;;;;;;32.54;72.45;100399.09;20963030;28;20106;-75
2023/06/12 09:08:55;;;;;;;7.75;3.03;;;;;;;32.48;76.07;100399.59;20967063;28;20040;-76
2023/06/12 09:18:59;;;;;;;6.43;2.80;;;;;;;32.47;76.71;100403.34;20969573;28;20052;-76
2023/06/12 09:29:27;;;;;;;7.43;3.03;;;;;;;32.34;81.72;100403.47;20989877;28;20077;-74
2023/06/12 09:39:51;;;;;;;4.93;2.30;;;;;;;32.42;81.16;100401.84;20988481;28;20047;-76
2023/06/12 09:50:14;;;;;;;6.60;2.50;;;;;;;32.76;72.35;100401.84;20958930;28;20121;-74
2023/06/12 10:00:40;;;;;;;8.45;2.50;;;;;;;33.02;72.30;100394.19;20985694;28;20135;-76
2023/06/12 10:11:04;;;;;;;5.93;2.58;;;;;;;33.11;75.91;100399.78;20954778;28;20064;-76
2023/06/12 10:21:08;;;;;;;5.25;2.60;;;;;;;32.82;76.97;100396.72;21007447;28;20064;-75
2023/06/12 10:31:31;;;;;;;6.88;2.63;;;;;;;32.68;78.76;100383.34;20952700;28;20048;-77
2023/06/12 10:41:57;;;;;;;6.57;2.40;;;;;;;32.36;88.22;100383.19;20969431;28;20056;-73
2023/06/12 10:52:00;;;;;;;6.93;2.10;;;;;;;32.12;88.16;100387.00;20971820;28;20083;-75
2023/06/12 11:02:24;;;;;;;7.07;2.55;;;;;;;32.14;92.65;100361.34;20960729;28;20131;-76
2023/06/12 11:12:48;;;;;;;5.60;2.15;;;;;;;32.68;88.08;100358.75;20974580;28;20052;-76
2023/06/12 11:23:00;;;;;;;5.47;2.30;;;;;;;33.24;69.56;100350.38;20970435;28;20044;-76
2023/06/12 11:33:24;;;;;;;5.57;2.33;;;;;;;33.05;68.45;100341.97;20933903;28;20412;-76
2023/06/12 11:43:48;;;;;;;5.90;2.47;;;;;;;33.44;66.07;100344.06;20945738;28;20107;-75
2023/06/12 11:54:15;;;;;;;5.10;2.35;;;;;;;33.00;57.67;100319.59;21048640;28;20048;-76
2023/06/12 12:04:39;;;;;;;4.85;2.05;;;;;;;32.57;57.09;100314.94;21041207;28;20049;-75
2023/06/12 12:15:03;;;;;;;4.45;2.08;;;;;;;32.09;73.49;100327.16;21006217;28;20048;-75
2023/06/12 12:25:29;;;;;;;5.68;2.15;;;;;;;31.85;81.05;100313.59;20986383;28;20098;-75
2023/06/12 12:35:52;;;;;;;7.13;2.77;;;;;;;32.25;84.15;100311.28;21036257;28;20051;-76
2023/06/12 12:46:16;;;;;;;5.25;3.08;;;;;;;32.45;79.17;100305.91;20999412;28;20044;-75
2023/06/12 12:56:39;;;;;;;5.40;2.75;;;;;;;32.33;68.35;100287.81;21033578;28;20040;-75
2023/06/12 13:07:03;;;;;;;8.15;2.67;;;;;;;32.26;69.57;100291.16;21034521;28;20045;-75
2023/06/12 13:17:25;;;;;;;6.43;2.57;;;;;;;32.65;59.65;100286.97;21001526;28;20099;-75
2023/06/12 13:27:50;;;;;;;5.53;2.42;;;;;;;32.66;63.08;100273.19;20986916;28;20040;-75
2023/06/12 13:38:12;;;;;;;5.72;2.50;;;;;;;31.86;71.87;100272.53;20976086;28;20051;-76
2023/06/12 13:48:37;;;;;;;6.50;2.72;;;;;;;31.64;72.87;100275.22;20966403;28;20122;-76
2023/06/12 13:58:59;;;;;;;7.75;2.60;;;;;;;31.74;67.59;100276.25;20974867;28;20045;-76
2023/06/12 14:09:23;;;;;;;4.47;2.10;;;;;;;31.51;65.91;100275.28;20984206;28;20045;-76
2023/06/12 14:19:45;;;;;;;6.22;2.80;;;;;;;31.20;77.31;100284.16;20983238;28;20401;-75
2023/06/12 14:30:10;;;;;;;5.60;3.05;;;;;;;31.13;73.95;100288.34;20981922;28;20056;-76
2023/06/12 14:40:33;;;;;;;4.55;2.90;;;;;;;31.27;52.99;100274.50;20985608;28;20447;-75
2023/06/12 14:50:37;;;;;;;7.78;3.03;;;;;;;31.41;59.31;100278.88;21034344;28;20105;-75
2023/06/12 15:01:01;;;;;;;5.65;2.75;;;;;;;31.82;62.62;100267.44;21059429;28;20084;-74
2023/06/12 15:11:25;;;;;;;5.70;2.80;;;;;;;31.90;62.25;100262.22;21035643;28;20071;-75
2023/06/12 15:21:48;;;;;;;7.60;3.00;;;;;;;31.63;62.60;100260.72;21026182;28;20054;-75
2023/06/12 15:32:13;;;;;;;9.02;3.22;;;;;;;31.27;65.37;100277.25;21043076;28;20052;-75
2023/06/12 15:42:37;;;;;;;9.75;3.15;;;;;;;30.08;60.51;100280.75;20963503;28;20055;-75
2023/06/12 15:53:02;;;;;;;6.85;3.10;;;;;;;29.36;65.30;100295.03;20957830;28;20053;-75
2023/06/12 16:03:25;;;;;;;6.18;3.17;;;;;;;28.93;67.67;100289.81;20979113;28;20063;-75
2023/06/12 16:13:49;;;;;;;6.22;3.50;;;;;;;28.49;68.36;100287.28;20996223;28;20064;-75
2023/06/12 16:24:11;;;;;;;7.78;2.88;;;;;;;28.30;74.62;100303.06;20952907;28;20607;-75
2023/06/12 16:34:36;;;;;;;8.35;3.42;;;;;;;28.09;81.39;100315.28;20986676;28;20059;-75
2023/06/12 16:44:58;;;;;;;8.93;3.78;;;;;;;27.75;92.02;100324.69;20980704;28;20397;-75
2023/06/12 16:55:03;;;;;;;7.65;3.92;;;;;;;27.62;96.00;100330.00;20986904;28;20079;-76
2023/06/12 17:05:26;;;;;;;7.10;4.35;;;;;;;27.37;100.00;100329.75;20993728;28;20048;-75
2023/06/12 17:15:50;;;;;;;11.13;4.57;;;;;;;27.09;100.00;100327.81;20976017;28;20040;-75
2023/06/12 17:26:12;;;;;;;9.90;5.43;;;;;;;26.82;100.00;100329.41;20998540;28;20557;-74
2023/06/12 17:36:36;;;;;;;11.57;5.15;;;;;;;26.49;100.00;100329.50;20979065;28;20106;-75
2023/06/12 17:46:59;;;;;;;7.88;4.72;;;;;;;26.26;100.00;100335.31;20979502;28;20045;-75
2023/06/12 17:57:23;;;;;;;8.90;4.90;;;;;;;26.00;100.00;100337.63;20963780;28;20512;-75
2023/06/12 18:07:45;;;;;;;10.60;5.43;;;;;;;25.75;100.00;100351.59;20950064;28;20056;-76
2023/06/12 18:18:09;;;;;;;7.93;5.47;;;;;;;25.55;100.00;100362.56;20975479;28;20045;-75
2023/06/12 18:28:32;;;;;;;8.95;4.63;;;;;;;25.26;100.00;100368.63;20973931;28;20044;-75
2023/06/12 18:38:57;;;;;;;14.15;5.45;;;;;;;25.08;100.00;100378.53;20979130;28;20086;-75
2023/06/12 18:49:21;;;;;;;8.23;5.45;;;;;;;24.93;100.00;100387.41;21022460;28;20117;-74
2023/06/12 18:59:45;;;;;;;16.38;9.73;;;;;;;24.75;100.00;100397.25;21008472;28;20393;-76
2023/06/12 19:10:09;;;;;;;11.45;5.90;;;;;;;24.58;100.00;100410.69;20985755;28;20045;-75
2023/06/12 19:20:35;;;;;;;7.45;5.38;;;;;;;24.42;100.00;100406.94;20979046;28;20055;-75
2023/06/12 19:30:58;;;;;;;10.70;5.68;;;;;;;24.22;100.00;100418.66;20991827;28;20062;-75
2023/06/12 19:41:22;;;;;;;9.80;6.50;;;;;;;24.12;100.00;100409.22;20976663;28;20467;-75
2023/06/12 19:51:45;;;;;;;10.15;6.65;;;;;;;23.93;100.00;100406.50;20985156;28;20056;-75
2023/06/12 20:02:09;;;;;;;10.60;6.65;;;;;;;23.75;100.00;100405.50;20977494;28;20087;-75
2023/06/12 20:12:31;;;;;;;10.43;6.45;;;;;;;23.61;100.00;100415.13;20976635;28;20597;-75
2023/06/12 20:22:56;;;;;;;10.55;6.95;;;;;;;23.41;100.00;100397.97;20986274;28;20441;-75
2023/06/12 20:33:19;;;;;;;9.90;6.82;;;;;;;23.24;100.00;100403.19;20990806;28;20075;-75
2023/06/12 20:43:45;;;;;;;7.32;5.50;;;;;;;23.14;100.00;100407.22;20995423;28;20049;-75
2023/06/12 20:54:08;;;;;;;8.82;6.07;;;;;;;23.10;100.00;100399.34;20995483;28;20041;-75
2023/06/12 21:04:32;;;;;;;9.13;6.18;;;;;;;23.08;100.00;100390.44;21003981;28;20107;-75
2023/06/12 21:14:55;;;;;;;10.27;6.40;;;;;;;22.98;100.00;100389.94;21011509;28;20055;-75
2023/06/12 21:25:19;;;;;;;9.63;6.00;;;;;;;22.74;100.00;100383.75;21010917;28;20105;-75
2023/06/12 21:35:43;;;;;;;7.78;6.35;;;;;;;22.64;100.00;100390.44;21046219;28;20037;-75
2023/06/12 21:46:08;;;;;;;11.27;6.05;;;;;;;22.56;100.00;100379.09;20971847;28;20064;-75
2023/06/12 21:56:20;;;;;;;11.05;7.65;;;;;;;22.47;100.00;100364.19;20980719;28;20040;-75
2023/06/12 22:06:44;;;;;;;9.95;7.20;;;;;;;22.31;100.00;100367.53;21005947;28;20053;-74
2023/06/12 22:17:07;;;;;;;11.60;8.13;;;;;;;22.16;100.00;100372.56;20978899;28;20040;-75
2023/06/12 22:27:31;;;;;;;10.57;7.68;;;;;;;22.11;100.00;100373.69;20975708;28;20142;-74
2023/06/12 22:37:53;;;;;;;13.40;9.77;;;;;;;22.06;100.00;100365.78;20994115;28;20053;-74
2023/06/12 22:48:18;;;;;;;10.70;8.88;;;;;;;22.02;100.00;100357.88;20972210;28;20044;-76
2023/06/12 22:58:40;;;;;;;11.32;8.55;;;;;;;21.96;100.00;100348.25;21007637;28;20106;-74
2023/06/12 23:09:05;;;;;;;9.73;7.95;;;;;;;21.90;100.00;100326.94;20978893;28;20558;-75
2023/06/12 23:19:31;;;;;;;13.35;9.93;;;;;;;21.62;100.00;100326.22;20950900;28;20068;-75
2023/06/12 23:29:55;;;;;;;12.80;7.47;;;;;;;21.69;100.00;100314.31;21010357;28;20140;-75
2023/06/12 23:40:19;;;;;;;14.07;10.15;;;;;;;21.62;100.00;100302.91;21002307;28;20135;-75
2023/06/12 23:50:45;;;;;;;11.70;8.23;;;;;;;21.50;100.00;100294.44;20966982;28;20040;-74
